Time;durP1;ratioP1;P1;durP2;ratioP2;P2;SDS_P1;SDS_P2;PMS_P1;PMS_P2;Temp;Humidity;BMP_temperature;BMP_pressure;BME280_temperature;BME280_humidity;BME280_pressure;Samples;Min_cycle;Max_cycle;Signal;HPM_P1;HPM_P2
2022/06/11 00:00:53;;;;;;;8.73;6.40;;;;;;;;;;5065101;28;20040;-51
2022/06/11 00:03:18;;;;;;;8.93;6.75;;;;;;;;;;5080077;28;20491;-51
2022/06/11 00:05:44;;;;;;;9.52;6.63;;;;;;;;;;5073321;28;20407;-51
2022/06/11 00:08:09;;;;;;;8.90;6.90;;;;;;;;;;5079558;28;20028;-51
2022/06/11 00:10:34;;;;;;;9.20;6.72;;;;;;;;;;5080139;28;20032;-51
2022/06/11 00:13:00;;;;;;;8.95;7.10;;;;;;;;;;5076104;28;20032;-50
2022/06/11 00:15:25;;;;;;;8.40;6.30;;;;;;;;;;5080103;28;20473;-51
2022/06/11 00:17:52;;;;;;;10.13;6.53;;;;;;;;;;5080501;28;20027;-51
2022/06/11 00:20:17;;;;;;;12.68;7.03;;;;;;;;;;5083823;28;20323;-50
2022/06/11 00:22:42;;;;;;;9.98;7.28;;;;;;;;;;5071573;28;20463;-51
2022/06/11 00:25:08;;;;;;;10.23;7.60;;;;;;;;;;5077228;28;20031;-50
2022/06/11 00:27:33;;;;;;;10.82;7.10;;;;;;;;;;5075828;28;20784;-51
2022/06/11 00:29:59;;;;;;;9.25;6.80;;;;;;;;;;5074388;28;20090;-51
2022/06/11 00:32:24;;;;;;;12.10;6.97;;;;;;;;;;5080393;28;20563;-50
2022/06/11 00:34:49;;;;;;;9.13;6.90;;;;;;;;;;5078401;28;20017;-49
2022/06/11 00:37:16;;;;;;;9.57;7.10;;;;;;;;;;5071578;28;20478;-50
2022/06/11 00:39:43;;;;;;;9.13;7.03;;;;;;;;;;5072557;28;20020;-51
2022/06/11 00:42:15;;;;;;;11.50;7.63;;;;;;;;;;5076982;28;20020;-49
2022/06/11 00:44:40;;;;;;;9.70;6.95;;;;;;;;;;5079400;28;20584;-51
2022/06/11 00:47:06;;;;;;;9.40;7.20;;;;;;;;;;5076351;28;20023;-51
2022/06/11 00:49:44;;;;;;;11.02;6.43;;;;;;;;;;5080867;28;20044;-51
2022/06/11 00:52:36;;;;;;;10.18;7.72;;;;;;;;;;5074859;28;20023;-51
2022/06/11 00:55:10;;;;;;;10.52;7.10;;;;;;;;;;5079971;28;20032;-50
2022/06/11 00:57:40;;;;;;;8.60;7.10;;;;;;;;;;5070547;28;20444;-50
2022/06/11 01:00:08;;;;;;;8.57;6.85;;;;;;;;;;5072589;28;20107;-51
2022/06/11 01:02:33;;;;;;;9.55;6.88;;;;;;;;;;5076529;28;20020;-51
2022/06/11 01:04:59;;;;;;;9.73;7.15;;;;;;;;;;5078871;28;20395;-50
2022/06/11 01:07:34;;;;;;;9.43;6.93;;;;;;;;;;5079526;28;20050;-49
2022/06/11 01:10:11;;;;;;;11.45;6.82;;;;;;;;;;5079837;28;20094;-50
2022/06/11 01:12:36;;;;;;;10.75;7.18;;;;;;;;;;5077669;28;20024;-51
2022/06/11 01:15:08;;;;;;;8.87;6.77;;;;;;;;;;5073435;28;20520;-51
2022/06/11 01:17:43;;;;;;;11.30;7.70;;;;;;;;;;5078078;28;20293;-50
2022/06/11 01:20:18;;;;;;;9.00;7.60;;;;;;;;;;5075572;28;20016;-52
2022/06/11 01:22:46;;;;;;;10.20;7.15;;;;;;;;;;5075827;28;20512;-50
2022/06/11 01:25:32;;;;;;;8.90;6.60;;;;;;;;;;5076483;28;20027;-51
2022/06/11 01:27:57;;;;;;;10.88;6.93;;;;;;;;;;5072657;28;20028;-51
2022/06/11 01:30:23;;;;;;;8.90;6.83;;;;;;;;;;5073564;28;20131;-52
2022/06/11 01:33:01;;;;;;;9.95;7.15;;;;;;;;;;5073996;28;20271;-51
2022/06/11 01:35:26;;;;;;;10.85;6.93;;;;;;;;;;5066255;28;20410;-50
2022/06/11 01:37:51;;;;;;;9.27;6.60;;;;;;;;;;5075875;28;20039;-50
2022/06/11 01:40:19;;;;;;;7.97;5.82;;;;;;;;;;5069172;28;21045;-51
2022/06/11 01:42:47;;;;;;;8.27;6.72;;;;;;;;;;5070927;28;20028;-50
2022/06/11 01:45:23;;;;;;;10.00;6.80;;;;;;;;;;5083028;28;20024;-51
2022/06/11 01:47:48;;;;;;;7.70;6.50;;;;;;;;;;5085210;28;20035;-51
2022/06/11 01:50:14;;;;;;;11.45;6.57;;;;;;;;;;5085203;28;20024;-52
2022/06/11 01:52:42;;;;;;;7.88;6.15;;;;;;;;;;5086836;28;20066;-51
2022/06/11 01:55:12;;;;;;;7.18;5.55;;;;;;;;;;5085330;28;20016;-51
2022/06/11 01:57:38;;;;;;;9.15;6.38;;;;;;;;;;5073585;28;20023;-53
2022/06/11 02:00:03;;;;;;;8.65;5.80;;;;;;;;;;5079333;28;20028;-51
2022/06/11 02:02:28;;;;;;;8.43;5.83;;;;;;;;;;5077473;28;20024;-50
2022/06/11 02:04:56;;;;;;;8.73;6.00;;;;;;;;;;5072148;28;20642;-51
2022/06/11 02:07:42;;;;;;;8.88;6.18;;;;;;;;;;5072776;28;20124;-50
2022/06/11 02:10:10;;;;;;;10.02;6.10;;;;;;;;;;5082676;28;20028;-50
2022/06/11 02:12:42;;;;;;;8.57;5.75;;;;;;;;;;5070716;28;20036;-51
2022/06/11 02:15:16;;;;;;;7.82;5.95;;;;;;;;;;5072425;28;20110;-51
2022/06/11 02:17:45;;;;;;;7.53;5.80;;;;;;;;;;5074179;28;20103;-52
2022/06/11 02:20:11;;;;;;;8.50;5.53;;;;;;;;;;5077544;28;20020;-51
2022/06/11 02:22:41;;;;;;;7.10;5.55;;;;;;;;;;5074169;28;20038;-51
2022/06/11 02:25:08;;;;;;;7.05;5.35;;;;;;;;;;5071273;28;20507;-50
2022/06/11 02:27:36;;;;;;;6.93;5.30;;;;;;;;;;5071612;28;20016;-50
2022/06/11 02:30:01;;;;;;;6.78;5.32;;;;;;;;;;5070894;28;20052;-49
2022/06/11 02:32:27;;;;;;;7.45;5.70;;;;;;;;;;5072933;28;20043;-50
2022/06/11 02:34:54;;;;;;;7.55;5.70;;;;;;;;;;5077523;28;20012;-50
2022/06/11 02:37:23;;;;;;;8.18;5.85;;;;;;;;;;5075910;28;20047;-50
2022/06/11 02:39:49;;;;;;;6.88;5.15;;;;;;;;;;5074052;28;20019;-50
2022/06/11 02:42:15;;;;;;;7.18;5.40;;;;;;;;;;5077658;28;20346;-50
2022/06/11 02:44:40;;;;;;;6.70;4.85;;;;;;;;;;5075707;28;20526;-50
2022/06/11 02:47:06;;;;;;;8.17;5.67;;;;;;;;;;5075030;28;20048;-51
2022/06/11 02:49:32;;;;;;;7.15;5.10;;;;;;;;;;5077150;28;20266;-50
2022/06/11 02:52:00;;;;;;;6.32;5.10;;;;;;;;;;5076931;28;20028;-50
2022/06/11 02:54:26;;;;;;;6.97;5.40;;;;;;;;;;5068416;28;20012;-49
2022/06/11 02:56:52;;;;;;;7.03;5.40;;;;;;;;;;5075355;28;20449;-52
2022/06/11 02:59:17;;;;;;;6.55;5.13;;;;;;;;;;5076297;28;20024;-50
2022/06/11 03:01:42;;;;;;;7.07;5.40;;;;;;;;;;5069999;28;20012;-50
2022/06/11 03:04:08;;;;;;;7.05;5.35;;;;;;;;;;5068782;28;20020;-50
2022/06/11 03:06:33;;;;;;;6.60;4.88;;;;;;;;;;5073371;28;20024;-51
2022/06/11 03:08:58;;;;;;;6.65;4.95;;;;;;;;;;5075559;28;20016;-51
2022/06/11 03:11:24;;;;;;;6.65;4.70;;;;;;;;;;5078613;28;20032;-49
2022/06/11 03:13:50;;;;;;;7.15;4.55;;;;;;;;;;5074173;28;20113;-50
2022/06/11 03:16:15;;;;;;;7.47;5.28;;;;;;;;;;5069962;28;20032;-50
2022/06/11 03:18:40;;;;;;;6.85;4.80;;;;;;;;;;5080090;28;20059;-50
2022/06/11 03:21:05;;;;;;;7.43;5.47;;;;;;;;;;5075861;28;20028;-49
2022/06/11 03:23:31;;;;;;;7.28;5.22;;;;;;;;;;5075258;28;20028;-49
2022/06/11 03:25:56;;;;;;;9.27;5.15;;;;;;;;;;5070153;28;20024;-49
2022/06/11 03:28:23;;;;;;;7.18;5.07;;;;;;;;;;5070689;28;20013;-50
2022/06/11 03:30:48;;;;;;;6.45;4.80;;;;;;;;;;5071232;28;20093;-49
2022/06/11 03:33:13;;;;;;;6.28;4.47;;;;;;;;;;5077310;28;20032;-51
2022/06/11 03:35:38;;;;;;;6.22;4.78;;;;;;;;;;5068039;28;20019;-51
2022/06/11 03:38:07;;;;;;;6.40;4.75;;;;;;;;;;5076419;28;20035;-51
2022/06/11 03:40:32;;;;;;;6.38;4.90;;;;;;;;;;5069295;28;20085;-51
2022/06/11 03:42:57;;;;;;;6.97;5.03;;;;;;;;;;5070363;28;20024;-51
2022/06/11 03:45:23;;;;;;;6.80;4.70;;;;;;;;;;5072119;28;20028;-51
2022/06/11 03:47:48;;;;;;;6.43;5.27;;;;;;;;;;5074768;28;20514;-51
2022/06/11 03:50:18;;;;;;;5.77;4.90;;;;;;;;;;5078523;28;20286;-51
2022/06/11 03:52:43;;;;;;;6.65;4.53;;;;;;;;;;5079724;28;20286;-51
2022/06/11 03:55:08;;;;;;;6.50;5.07;;;;;;;;;;5080287;28;20024;-50
2022/06/11 03:57:34;;;;;;;8.13;4.57;;;;;;;;;;5078953;28;20278;-49
2022/06/11 04:00:02;;;;;;;7.10;5.03;;;;;;;;;;5074870;28;20047;-51
2022/06/11 04:02:28;;;;;;;6.88;4.90;;;;;;;;;;5079393;28;20504;-50
2022/06/11 04:04:53;;;;;;;6.85;5.10;;;;;;;;;;5079128;28;20020;-51
2022/06/11 04:07:19;;;;;;;6.32;4.97;;;;;;;;;;5110639;27;20023;-51
2022/06/11 04:09:44;;;;;;;6.78;5.35;;;;;;;;;;5075976;28;20564;-50
2022/06/11 04:12:11;;;;;;;8.20;5.38;;;;;;;;;;5080600;28;20040;-50
2022/06/11 04:14:37;;;;;;;9.00;5.15;;;;;;;;;;5079346;28;20509;-51
2022/06/11 04:17:04;;;;;;;7.47;4.93;;;;;;;;;;5081330;28;20020;-52
2022/06/11 04:19:30;;;;;;;7.13;4.90;;;;;;;;;;5081773;28;20047;-51
2022/06/11 04:21:57;;;;;;;7.32;5.10;;;;;;;;;;5082524;28;20424;-51
2022/06/11 04:24:23;;;;;;;6.60;4.70;;;;;;;;;;5078303;28;20123;-50
2022/06/11 04:26:49;;;;;;;7.93;5.28;;;;;;;;;;5082243;28;20132;-49
2022/06/11 04:29:16;;;;;;;7.47;5.50;;;;;;;;;;5078641;28;20044;-50
2022/06/11 04:31:41;;;;;;;6.68;5.00;;;;;;;;;;5079777;28;20507;-51
2022/06/11 04:34:07;;;;;;;7.53;5.22;;;;;;;;;;5079160;28;20027;-50
2022/06/11 04:36:32;;;;;;;5.40;4.17;;;;;;;;;;5081302;28;20063;-51
2022/06/11 04:38:57;;;;;;;8.10;4.50;;;;;;;;;;5083562;28;20292;-50
2022/06/11 04:41:23;;;;;;;5.07;3.90;;;;;;;;;;5075840;28;20110;-52
2022/06/11 04:43:48;;;;;;;6.13;4.55;;;;;;;;;;5076648;28;20077;-52
2022/06/11 04:46:14;;;;;;;6.18;3.75;;;;;;;;;;5078942;28;20058;-52
2022/06/11 04:48:39;;;;;;;4.85;3.88;;;;;;;;;;5071880;28;20408;-52
2022/06/11 04:51:05;;;;;;;5.30;3.88;;;;;;;;;;5083543;28;20113;-51
2022/06/11 04:53:30;;;;;;;5.35;3.63;;;;;;;;;;5076705;28;20020;-51
2022/06/11 04:55:56;;;;;;;4.90;3.75;;;;;;;;;;5080089;28;20031;-50
2022/06/11 04:58:21;;;;;;;6.35;3.38;;;;;;;;;;5079304;28;20016;-52
2022/06/11 05:00:47;;;;;;;5.10;3.65;;;;;;;;;;5076425;28;20035;-51
2022/06/11 05:03:12;;;;;;;5.97;3.75;;;;;;;;;;5071590;28;20021;-50
2022/06/11 05:05:37;;;;;;;6.07;4.38;;;;;;;;;;5076889;28;20479;-51
2022/06/11 05:08:04;;;;;;;5.53;3.70;;;;;;;;;;5073729;28;20475;-51
2022/06/11 05:10:30;;;;;;;5.32;3.38;;;;;;;;;;5078971;28;20055;-50
2022/06/11 05:12:55;;;;;;;6.72;3.42;;;;;;;;;;5073253;28;20051;-51
2022/06/11 05:15:20;;;;;;;5.95;3.40;;;;;;;;;;5072256;28;20083;-52
2022/06/11 05:17:46;;;;;;;5.25;3.65;;;;;;;;;;5075281;28;20373;-51
2022/06/11 05:20:11;;;;;;;4.05;3.13;;;;;;;;;;5077557;28;20757;-50
2022/06/11 05:22:37;;;;;;;4.20;3.13;;;;;;;;;;5073720;28;20052;-51
2022/06/11 05:25:02;;;;;;;5.50;3.38;;;;;;;;;;5075883;28;20095;-51
2022/06/11 05:27:27;;;;;;;4.57;3.10;;;;;;;;;;5073383;28;20028;-52
2022/06/11 05:29:54;;;;;;;4.32;3.00;;;;;;;;;;5078779;28;20093;-51
2022/06/11 05:32:21;;;;;;;4.22;3.13;;;;;;;;;;5083304;28;20122;-50
2022/06/11 05:34:46;;;;;;;4.05;2.83;;;;;;;;;;5077470;28;20568;-50
2022/06/11 05:37:12;;;;;;;4.90;3.60;;;;;;;;;;5080002;28;20065;-52
2022/06/11 05:39:37;;;;;;;3.60;2.70;;;;;;;;;;5072924;28;20012;-53
2022/06/11 05:42:03;;;;;;;3.20;2.47;;;;;;;;;;5078678;28;20093;-51
2022/06/11 05:44:28;;;;;;;3.75;2.60;;;;;;;;;;5078398;28;20414;-51
2022/06/11 05:46:53;;;;;;;4.07;2.42;;;;;;;;;;5081175;28;20024;-50
2022/06/11 05:49:20;;;;;;;4.10;2.47;;;;;;;;;;5077149;28;20020;-50
2022/06/11 05:51:46;;;;;;;3.95;2.55;;;;;;;;;;5070360;28;20499;-50
2022/06/11 05:54:13;;;;;;;3.67;2.58;;;;;;;;;;5076066;28;20045;-51
2022/06/11 05:56:38;;;;;;;3.55;2.45;;;;;;;;;;5079217;28;20028;-51
2022/06/11 05:59:05;;;;;;;5.68;2.50;;;;;;;;;;5076627;28;20032;-52
2022/06/11 06:01:33;;;;;;;5.47;2.67;;;;;;;;;;5076447;28;20028;-51
2022/06/11 06:03:58;;;;;;;4.50;2.70;;;;;;;;;;5081264;28;20534;-51
2022/06/11 06:06:23;;;;;;;4.07;2.50;;;;;;;;;;5079199;28;20110;-52
2022/06/11 06:08:48;;;;;;;2.90;2.38;;;;;;;;;;5080757;28;21118;-52
2022/06/11 06:11:14;;;;;;;3.55;2.55;;;;;;;;;;5068243;28;20036;-51
2022/06/11 06:13:48;;;;;;;3.10;2.35;;;;;;;;;;5074927;28;20567;-52
2022/06/11 06:16:14;;;;;;;4.85;2.75;;;;;;;;;;5077793;28;20035;-51
2022/06/11 06:18:39;;;;;;;3.47;2.83;;;;;;;;;;5081903;28;20467;-52
2022/06/11 06:21:05;;;;;;;3.63;2.63;;;;;;;;;;5078688;28;20019;-52
2022/06/11 06:23:31;;;;;;;3.65;2.53;;;;;;;;;;5079537;28;20028;-52
2022/06/11 06:25:56;;;;;;;3.65;2.80;;;;;;;;;;5081029;28;20000;-51
2022/06/11 06:28:22;;;;;;;3.65;2.72;;;;;;;;;;5078537;28;20019;-51
2022/06/11 06:30:47;;;;;;;3.40;2.33;;;;;;;;;;5080489;28;20040;-50
2022/06/11 06:33:14;;;;;;;3.97;2.60;;;;;;;;;;5081558;28;20309;-53
2022/06/11 06:35:39;;;;;;;3.72;2.80;;;;;;;;;;5080685;28;20036;-53
2022/06/11 06:38:06;;;;;;;4.13;2.60;;;;;;;;;;5081210;28;20008;-52
2022/06/11 06:40:31;;;;;;;4.72;2.60;;;;;;;;;;5070592;28;20361;-52
2022/06/11 06:42:56;;;;;;;4.73;3.23;;;;;;;;;;5075454;28;20518;-51
2022/06/11 06:45:22;;;;;;;3.90;2.60;;;;;;;;;;5079559;28;20290;-52
2022/06/11 06:47:47;;;;;;;4.50;2.70;;;;;;;;;;5080691;28;20023;-51
2022/06/11 06:50:12;;;;;;;4.22;2.75;;;;;;;;;;5081277;28;20023;-51
2022/06/11 06:52:38;;;;;;;3.50;2.80;;;;;;;;;;5081656;28;20395;-52
2022/06/11 06:55:03;;;;;;;4.10;2.63;;;;;;;;;;5071494;28;20056;-52
2022/06/11 06:57:29;;;;;;;3.70;2.88;;;;;;;;;;5068117;28;20024;-50
2022/06/11 06:59:54;;;;;;;5.07;3.15;;;;;;;;;;5079926;28;20414;-52
2022/06/11 07:02:19;;;;;;;4.17;3.00;;;;;;;;;;5079743;28;20078;-50
2022/06/11 07:04:45;;;;;;;3.63;2.55;;;;;;;;;;5081615;28;20902;-52
2022/06/11 07:07:16;;;;;;;4.32;2.50;;;;;;;;;;5081744;28;20016;-52
2022/06/11 07:09:41;;;;;;;3.38;2.25;;;;;;;;;;5076391;28;20072;-51
2022/06/11 07:12:07;;;;;;;4.27;2.40;;;;;;;;;;5076726;28;20024;-50
2022/06/11 07:14:32;;;;;;;4.35;2.40;;;;;;;;;;5078167;28;20385;-51
2022/06/11 07:16:58;;;;;;;3.28;2.33;;;;;;;;;;5077066;28;20026;-52
2022/06/11 07:19:24;;;;;;;3.17;2.20;;;;;;;;;;5078992;28;20024;-52
2022/06/11 07:21:50;;;;;;;3.80;2.00;;;;;;;;;;5073648;28;20068;-51
2022/06/11 07:24:17;;;;;;;4.20;2.22;;;;;;;;;;5080572;28;20102;-50
2022/06/11 07:26:46;;;;;;;3.90;2.38;;;;;;;;;;5081774;28;20036;-51
2022/06/11 07:29:12;;;;;;;4.68;2.15;;;;;;;;;;5081121;28;20101;-52
2022/06/11 07:31:38;;;;;;;3.08;2.22;;;;;;;;;;5076617;28;20028;-52
2022/06/11 07:34:04;;;;;;;5.15;3.05;;;;;;;;;;5083246;28;20020;-53
2022/06/11 07:36:29;;;;;;;4.70;2.33;;;;;;;;;;5079159;28;20418;-52
2022/06/11 07:38:54;;;;;;;3.10;2.20;;;;;;;;;;5082719;28;20267;-51
2022/06/11 07:41:20;;;;;;;3.67;2.30;;;;;;;;;;5069831;28;20271;-51
2022/06/11 07:43:45;;;;;;;6.32;2.20;;;;;;;;;;5072661;28;20096;-51
2022/06/11 07:46:10;;;;;;;7.17;3.60;;;;;;;;;;5075859;28;20028;-52
2022/06/11 07:48:36;;;;;;;43.57;28.53;;;;;;;;;;5075795;28;21800;-52
2022/06/11 07:51:01;;;;;;;6.30;3.35;;;;;;;;;;5081748;28;20287;-51
2022/06/11 07:53:26;;;;;;;4.67;2.50;;;;;;;;;;5082244;28;20146;-53
2022/06/11 07:55:52;;;;;;;4.37;2.50;;;;;;;;;;5080375;28;20269;-51
2022/06/11 07:58:18;;;;;;;4.35;2.50;;;;;;;;;;5080464;28;21076;-52
2022/06/11 08:00:45;;;;;;;4.22;2.63;;;;;;;;;;5078287;28;20060;-50
2022/06/11 08:03:10;;;;;;;4.10;2.83;;;;;;;;;;5081419;28;20024;-52
2022/06/11 08:05:36;;;;;;;4.47;2.55;;;;;;;;;;5083971;28;20020;-52
2022/06/11 08:08:01;;;;;;;4.78;2.42;;;;;;;;;;5078645;28;20410;-53
2022/06/11 08:10:27;;;;;;;3.97;2.60;;;;;;;;;;5079757;28;20016;-52
2022/06/11 08:12:53;;;;;;;4.82;2.50;;;;;;;;;;5080836;28;20503;-51
2022/06/11 08:15:19;;;;;;;3.80;2.28;;;;;;;;;;5078731;28;20471;-51
2022/06/11 08:17:44;;;;;;;3.17;2.45;;;;;;;;;;5082290;28;20039;-52
2022/06/11 08:20:11;;;;;;;3.05;2.10;;;;;;;;;;5080202;28;20050;-51
2022/06/11 08:22:37;;;;;;;3.38;2.30;;;;;;;;;;5077711;28;20024;-51
2022/06/11 08:25:02;;;;;;;3.13;2.30;;;;;;;;;;5083475;28;20077;-50
2022/06/11 08:27:28;;;;;;;2.85;2.10;;;;;;;;;;5080549;28;20672;-50
2022/06/11 08:29:53;;;;;;;3.05;2.20;;;;;;;;;;5081765;28;20040;-51
2022/06/11 08:32:18;;;;;;;3.28;2.20;;;;;;;;;;5069684;28;20039;-50
2022/06/11 08:34:46;;;;;;;3.47;2.70;;;;;;;;;;5068156;28;20155;-50
2022/06/11 08:37:11;;;;;;;3.75;2.50;;;;;;;;;;5074291;28;20334;-51
2022/06/11 08:39:36;;;;;;;4.00;2.67;;;;;;;;;;5079297;28;20012;-52
2022/06/11 08:42:02;;;;;;;3.90;2.70;;;;;;;;;;5074496;28;20483;-51
2022/06/11 08:44:27;;;;;;;3.80;2.47;;;;;;;;;;5072546;28;20047;-53
2022/06/11 08:46:54;;;;;;;3.28;2.30;;;;;;;;;;5085135;28;20473;-51
2022/06/11 08:49:20;;;;;;;4.18;2.40;;;;;;;;;;5087266;28;20008;-51
2022/06/11 08:51:55;;;;;;;3.23;2.20;;;;;;;;;;5079551;28;20031;-51
2022/06/11 08:54:22;;;;;;;3.92;2.35;;;;;;;;;;5097214;28;20254;-53
2022/06/11 08:56:51;;;;;;;2.80;2.40;;;;;;;;;;5094891;28;20020;-52
2022/06/11 08:59:35;;;;;;;3.90;2.22;;;;;;;;;;5087364;28;20047;-52
2022/06/11 09:02:18;;;;;;;3.47;2.50;;;;;;;;;;5079822;28;20115;-52
2022/06/11 09:04:50;;;;;;;3.83;2.38;;;;;;;;;;5083802;28;20016;-52
2022/06/11 09:07:19;;;;;;;3.88;2.70;;;;;;;;;;5084232;28;20087;-51
2022/06/11 09:10:03;;;;;;;4.53;2.35;;;;;;;;;;5086300;28;20030;-52
2022/06/11 09:13:00;;;;;;;7.78;2.72;;;;;;;;;;5077842;28;20044;-51
2022/06/11 09:15:58;;;;;;;3.10;2.40;;;;;;;;;;5057668;28;20055;-52
2022/06/11 09:18:35;;;;;;;3.80;2.80;;;;;;;;;;5051154;28;20063;-51
2022/06/11 09:21:09;;;;;;;4.10;2.83;;;;;;;;;;5076314;28;20024;-52
2022/06/11 09:23:45;;;;;;;3.72;2.85;;;;;;;;;;5081994;28;20043;-51
2022/06/11 09:26:39;;;;;;;3.40;2.85;;;;;;;;;;5069256;28;20175;-51
2022/06/11 09:29:10;;;;;;;3.72;2.85;;;;;;;;;;5067661;28;20065;-50
2022/06/11 09:31:35;;;;;;;4.55;2.90;;;;;;;;;;5073100;28;20023;-52
2022/06/11 09:34:01;;;;;;;3.70;2.60;;;;;;;;;;5077030;28;20020;-51
2022/06/11 09:36:28;;;;;;;3.43;2.80;;;;;;;;;;5078828;28;20708;-52
2022/06/11 09:38:54;;;;;;;4.13;2.90;;;;;;;;;;5076914;28;20368;-51
2022/06/11 09:41:25;;;;;;;5.10;2.78;;;;;;;;;;5068114;28;20031;-52
2022/06/11 09:43:53;;;;;;;3.88;2.58;;;;;;;;;;5061892;28;20107;-52
2022/06/11 09:46:21;;;;;;;4.25;2.50;;;;;;;;;;5076043;28;20521;-51
2022/06/11 09:48:47;;;;;;;3.85;2.50;;;;;;;;;;5076770;28;20048;-53
2022/06/11 09:51:23;;;;;;;4.38;2.65;;;;;;;;;;5078150;28;20117;-53
2022/06/11 09:53:52;;;;;;;5.10;2.78;;;;;;;;;;5077699;28;20034;-51
2022/06/11 09:56:38;;;;;;;4.38;2.45;;;;;;;;;;5077052;28;20038;-52
2022/06/11 09:59:06;;;;;;;4.07;2.90;;;;;;;;;;5053196;28;20516;-52
2022/06/11 10:01:33;;;;;;;3.20;2.22;;;;;;;;;;5067423;28;20814;-52
2022/06/11 10:04:01;;;;;;;3.10;2.60;;;;;;;;;;5068792;28;20410;-52
2022/06/11 10:06:26;;;;;;;2.67;2.30;;;;;;;;;;5077420;28;20514;-51
2022/06/11 10:09:01;;;;;;;3.60;2.58;;;;;;;;;;5066120;28;20029;-53
2022/06/11 10:11:30;;;;;;;3.30;2.22;;;;;;;;;;5073175;28;20495;-51
2022/06/11 10:13:57;;;;;;;4.00;2.07;;;;;;;;;;5068373;28;20019;-51
2022/06/11 10:16:25;;;;;;;3.80;2.30;;;;;;;;;;5071829;28;20519;-51
2022/06/11 10:18:50;;;;;;;2.72;2.15;;;;;;;;;;5075002;28;20019;-51
2022/06/11 10:21:19;;;;;;;2.85;2.20;;;;;;;;;;5079340;28;20020;-51
2022/06/11 10:23:54;;;;;;;3.05;2.20;;;;;;;;;;5075488;28;20039;-51
2022/06/11 10:26:25;;;;;;;3.15;2.33;;;;;;;;;;5078657;28;20016;-53
2022/06/11 10:29:09;;;;;;;2.63;2.15;;;;;;;;;;5078480;28;20040;-52
2022/06/11 10:31:36;;;;;;;3.30;2.28;;;;;;;;;;5077685;28;20555;-50
2022/06/11 10:34:09;;;;;;;2.67;2.45;;;;;;;;;;5065600;28;20016;-51
2022/06/11 10:36:35;;;;;;;3.45;2.42;;;;;;;;;;5099012;27;20055;-51
2022/06/11 10:39:03;;;;;;;3.65;2.20;;;;;;;;;;5098952;27;20101;-52
2022/06/11 10:41:32;;;;;;;3.58;2.53;;;;;;;;;;5067618;28;20036;-52
2022/06/11 10:44:00;;;;;;;4.13;2.15;;;;;;;;;;5063759;28;20017;-52
2022/06/11 10:46:25;;;;;;;3.35;2.17;;;;;;;;;;5070651;28;20020;-54
2022/06/11 10:48:51;;;;;;;2.83;2.30;;;;;;;;;;5074410;28;20020;-51
2022/06/11 10:51:21;;;;;;;4.20;2.63;;;;;;;;;;5073964;28;20297;-51
2022/06/11 10:53:50;;;;;;;3.90;2.85;;;;;;;;;;5070898;28;20024;-52
2022/06/11 10:56:15;;;;;;;6.30;2.45;;;;;;;;;;5081146;28;20089;-52
2022/06/11 10:58:42;;;;;;;3.23;2.20;;;;;;;;;;5079911;28;20032;-52
2022/06/11 11:01:12;;;;;;;4.50;2.70;;;;;;;;;;5083447;28;20254;-52
2022/06/11 11:03:47;;;;;;;3.28;2.40;;;;;;;;;;5080563;28;20020;-53
2022/06/11 11:06:17;;;;;;;3.90;2.40;;;;;;;;;;5081913;28;20043;-52
2022/06/11 11:08:53;;;;;;;4.70;2.97;;;;;;;;;;5081911;28;20415;-54
2022/06/11 11:11:19;;;;;;;3.92;2.60;;;;;;;;;;5080351;28;20036;-53
2022/06/11 11:13:44;;;;;;;5.47;2.93;;;;;;;;;;5079170;28;20017;-53
2022/06/11 11:16:13;;;;;;;6.60;3.38;;;;;;;;;;5083165;28;20317;-51
2022/06/11 11:18:53;;;;;;;4.03;2.25;;;;;;;;;;5082149;28;20027;-51
2022/06/11 11:21:22;;;;;;;3.03;2.10;;;;;;;;;;5078498;28;20392;-51
2022/06/11 11:23:48;;;;;;;3.67;2.00;;;;;;;;;;5077731;28;20862;-53
2022/06/11 11:26:34;;;;;;;3.33;1.92;;;;;;;;;;5078781;28;20024;-51
2022/06/11 11:29:01;;;;;;;3.05;1.98;;;;;;;;;;5072803;28;20054;-51
2022/06/11 11:31:28;;;;;;;4.18;2.10;;;;;;;;;;5067627;28;20028;-50
2022/06/11 11:34:00;;;;;;;3.35;2.13;;;;;;;;;;5077560;28;20032;-52
2022/06/11 11:36:26;;;;;;;3.90;2.10;;;;;;;;;;5073733;28;20027;-52
2022/06/11 11:39:01;;;;;;;4.13;2.30;;;;;;;;;;5082097;28;20028;-52
2022/06/11 11:41:32;;;;;;;3.95;2.67;;;;;;;;;;5076519;28;20020;-51
2022/06/11 11:43:58;;;;;;;3.15;2.20;;;;;;;;;;5078778;28;20499;-51
2022/06/11 11:46:24;;;;;;;4.35;2.55;;;;;;;;;;5082059;28;20035;-55
2022/06/11 11:48:53;;;;;;;4.55;2.20;;;;;;;;;;5079205;28;20085;-53
2022/06/11 11:51:30;;;;;;;3.25;2.20;;;;;;;;;;5071912;28;20119;-54
2022/06/11 11:54:03;;;;;;;5.35;2.25;;;;;;;;;;5074490;28;20487;-53
2022/06/11 11:56:37;;;;;;;5.13;2.30;;;;;;;;;;5072592;28;20016;-53
2022/06/11 11:59:17;;;;;;;3.38;2.00;;;;;;;;;;5078629;28;20028;-54
2022/06/11 12:01:42;;;;;;;;;;;;;;;;;;5078206;28;20046;-54
2022/06/11 12:04:26;;;;;;;3.13;1.97;;;;;;;;;;5080639;28;20009;-54
2022/06/11 12:06:55;;;;;;;2.45;1.63;;;;;;;;;;5073428;28;20370;-52
2022/06/11 12:09:21;;;;;;;2.83;1.65;;;;;;;;;;5083889;28;20114;-52
2022/06/11 12:11:54;;;;;;;3.25;1.75;;;;;;;;;;5079834;28;20158;-52
2022/06/11 12:14:19;;;;;;;2.92;1.95;;;;;;;;;;5076978;28;20047;-52
2022/06/11 12:16:52;;;;;;;3.27;2.10;;;;;;;;;;5079713;28;20055;-51
2022/06/11 12:19:21;;;;;;;3.08;1.75;;;;;;;;;;5078671;28;20263;-53
2022/06/11 12:21:54;;;;;;;4.10;3.05;;;;;;;;;;5082131;28;20146;-51
2022/06/11 12:24:24;;;;;;;3.33;2.25;;;;;;;;;;5080723;28;20012;-53
2022/06/11 12:26:52;;;;;;;3.28;1.92;;;;;;;;;;5074243;28;20584;-52
2022/06/11 12:29:20;;;;;;;4.82;2.33;;;;;;;;;;5078535;28;20048;-52
2022/06/11 12:31:46;;;;;;;3.97;1.92;;;;;;;;;;5077693;28;20732;-52
2022/06/11 12:34:15;;;;;;;2.90;1.98;;;;;;;;;;5079110;28;20803;-51
2022/06/11 12:36:55;;;;;;;4.05;1.77;;;;;;;;;;5074055;28;20039;-52
2022/06/11 12:39:33;;;;;;;3.30;1.88;;;;;;;;;;5076078;28;20024;-52
2022/06/11 12:42:04;;;;;;;2.83;1.63;;;;;;;;;;5080381;28;20107;-52
2022/06/11 12:44:42;;;;;;;3.22;1.75;;;;;;;;;;5078585;28;20032;-54
2022/06/11 12:47:27;;;;;;;3.22;1.75;;;;;;;;;;5077546;28;20040;-54
2022/06/11 12:49:52;;;;;;;3.80;2.10;;;;;;;;;;5079319;28;20067;-52
2022/06/11 12:52:21;;;;;;;2.87;1.90;;;;;;;;;;5078300;28;20517;-52
2022/06/11 12:54:49;;;;;;;4.90;1.77;;;;;;;;;;5081730;28;20274;-53
2022/06/11 12:57:18;;;;;;;5.97;1.60;;;;;;;;;;5081935;28;20034;-51
2022/06/11 13:00:02;;;;;;;5.85;1.98;;;;;;;;;;5080376;28;20178;-53
2022/06/11 13:03:00;;;;;;;5.68;2.00;;;;;;;;;;5080941;28;20024;-53
2022/06/11 13:05:31;;;;;;;2.70;1.63;;;;;;;;;;5049301;28;20118;-52
2022/06/11 13:07:56;;;;;;;3.75;1.50;;;;;;;;;;5081223;28;20118;-51
2022/06/11 13:10:40;;;;;;;4.20;1.80;;;;;;;;;;5081338;28;20087;-52
2022/06/11 13:13:15;;;;;;;3.20;1.85;;;;;;;;;;5077078;28;20034;-51
2022/06/11 13:15:57;;;;;;;4.10;1.80;;;;;;;;;;5079136;28;20054;-52
2022/06/11 13:18:35;;;;;;;2.40;1.83;;;;;;;;;;5072279;28;20478;-54
2022/06/11 13:21:07;;;;;;;4.65;2.35;;;;;;;;;;5074314;28;20027;-52
2022/06/11 13:23:39;;;;;;;3.50;2.35;;;;;;;;;;5070994;28;20051;-52
2022/06/11 13:26:14;;;;;;;3.80;2.00;;;;;;;;;;5077270;28;20028;-52
2022/06/11 13:28:41;;;;;;;3.47;1.85;;;;;;;;;;5082693;28;20035;-54
2022/06/11 13:31:06;;;;;;;2.72;2.00;;;;;;;;;;5065577;28;20302;-52
2022/06/11 13:33:44;;;;;;;3.63;1.80;;;;;;;;;;5076376;28;20060;-53
2022/06/11 13:36:12;;;;;;;2.92;1.90;;;;;;;;;;5075459;28;20277;-52
2022/06/11 13:38:56;;;;;;;4.50;2.13;;;;;;;;;;5076168;28;20023;-53
2022/06/11 13:41:27;;;;;;;4.47;2.33;;;;;;;;;;5071586;28;20115;-53
2022/06/11 13:43:53;;;;;;;2.42;2.10;;;;;;;;;;5079913;28;20020;-52
2022/06/11 13:46:29;;;;;;;3.60;2.40;;;;;;;;;;5080513;28;20575;-52
2022/06/11 13:49:00;;;;;;;3.45;2.13;;;;;;;;;;5082258;28;20019;-53
2022/06/11 13:51:27;;;;;;;5.35;2.88;;;;;;;;;;5079450;28;20024;-53
2022/06/11 13:56:49;;;;;;;4.05;2.35;;;;;;;;;;5081529;28;20055;-51
2022/06/11 13:59:34;;;;;;;4.83;2.43;;;;;;;;;;5083093;28;20110;-53
2022/06/11 14:02:02;;;;;;;3.30;1.98;;;;;;;;;;5069928;28;20281;-54
2022/06/11 14:04:39;;;;;;;4.07;2.30;;;;;;;;;;5082261;28;20020;-53
2022/06/11 14:07:06;;;;;;;3.50;2.80;;;;;;;;;;5074888;28;20479;-53
2022/06/11 14:12:35;;;;;;;3.40;2.33;;;;;;;;;;5073615;28;20059;-54
2022/06/11 14:15:18;;;;;;;3.00;2.22;;;;;;;;;;5078903;28;20107;-52
2022/06/11 14:17:45;;;;;;;3.97;2.75;;;;;;;;;;5075504;28;20107;-52
2022/06/11 14:20:28;;;;;;;3.90;2.60;;;;;;;;;;5078868;28;20020;-53
2022/06/11 14:22:53;;;;;;;3.83;2.65;;;;;;;;;;5074484;28;20012;-52
2022/06/11 14:25:37;;;;;;;3.00;2.53;;;;;;;;;;5075207;28;20030;-52
2022/06/11 14:28:23;;;;;;;3.60;2.22;;;;;;;;;;5071438;28;20119;-52
2022/06/11 14:30:48;;;;;;;3.20;2.42;;;;;;;;;;5066410;28;20489;-54
2022/06/11 14:33:13;;;;;;;2.80;2.30;;;;;;;;;;5081498;28;20039;-53
2022/06/11 14:35:48;;;;;;;3.83;2.35;;;;;;;;;;5075599;28;20270;-52
2022/06/11 14:38:29;;;;;;;5.10;2.50;;;;;;;;;;5072796;28;20770;-51
2022/06/11 14:41:07;;;;;;;3.83;2.72;;;;;;;;;;5073369;28;20117;-50
2022/06/11 14:46:33;;;;;;;4.75;2.50;;;;;;;;;;5065997;28;20020;-51
2022/06/11 14:49:17;;;;;;;3.03;2.60;;;;;;;;;;5076639;28;20029;-50
2022/06/11 14:51:44;;;;;;;5.05;2.70;;;;;;;;;;5079474;28;20210;-54
2022/06/11 14:54:12;;;;;;;3.15;2.33;;;;;;;;;;5078311;28;20439;-53
2022/06/11 14:56:40;;;;;;;3.20;2.42;;;;;;;;;;5073044;28;20036;-53
2022/06/11 14:59:24;;;;;;;3.45;2.45;;;;;;;;;;5070520;28;20566;-52
2022/06/11 15:01:59;;;;;;;3.47;2.28;;;;;;;;;;5073524;28;20017;-52